Time;durP1;ratioP1;P1;durP2;ratioP2;P2;SDS_P1;SDS_P2;PMS_P1;PMS_P2;Temp;Humidity;BMP_temperature;BMP_pressure;BME280_temperature;BME280_humidity;BME280_pressure;Samples;Min_cycle;Max_cycle;Signal;HPM_P1;HPM_P2
2023/09/10 00:01:03;;;;;;;14.70;13.25;;;;;;;;;;5070470;28;20171;-61
2023/09/10 00:03:28;;;;;;;14.75;13.18;;;;;;;;;;5071556;28;20016;-61
2023/09/10 00:05:53;;;;;;;14.97;13.57;;;;;;;;;;5068844;28;20043;-61
2023/09/10 00:08:19;;;;;;;16.27;14.90;;;;;;;;;;5071798;28;20415;-61
2023/09/10 00:10:44;;;;;;;11.93;10.82;;;;;;;;;;5069759;28;20495;-61
2023/09/10 00:13:10;;;;;;;12.87;11.23;;;;;;;;;;5071264;28;20017;-61
2023/09/10 00:15:35;;;;;;;10.32;9.20;;;;;;;;;;5068313;28;20070;-60
2023/09/10 00:18:00;;;;;;;9.57;8.70;;;;;;;;;;5071358;28;20077;-61
2023/09/10 00:20:27;;;;;;;11.88;10.88;;;;;;;;;;5069821;28;20488;-61
2023/09/10 00:22:52;;;;;;;8.90;8.00;;;;;;;;;;5064087;28;20024;-61
2023/09/10 00:25:17;;;;;;;11.20;10.10;;;;;;;;;;5050083;28;20111;-60
2023/09/10 00:27:42;;;;;;;11.10;10.20;;;;;;;;;;5071025;28;20012;-60
2023/09/10 00:30:07;;;;;;;13.30;12.10;;;;;;;;;;5071475;28;20021;-60
2023/09/10 00:32:33;;;;;;;12.68;11.52;;;;;;;;;;5068740;28;20033;-70
2023/09/10 00:34:58;;;;;;;12.88;11.68;;;;;;;;;;5070448;28;20024;-61
2023/09/10 00:37:23;;;;;;;15.60;14.17;;;;;;;;;;5069500;28;20044;-60
2023/09/10 00:39:48;;;;;;;15.45;13.80;;;;;;;;;;5070188;28;20411;-61
2023/09/10 00:42:13;;;;;;;17.17;15.57;;;;;;;;;;5069592;28;20036;-60
2023/09/10 00:44:40;;;;;;;15.80;14.30;;;;;;;;;;5070665;28;20096;-60
2023/09/10 00:47:05;;;;;;;17.83;15.93;;;;;;;;;;5068846;28;20562;-60
2023/09/10 00:49:31;;;;;;;16.55;15.00;;;;;;;;;;5070609;28;20028;-61
2023/09/10 00:51:58;;;;;;;22.73;20.52;;;;;;;;;;5069382;28;20037;-61
2023/09/10 00:54:24;;;;;;;22.88;20.67;;;;;;;;;;5064309;28;20123;-61
2023/09/10 00:56:50;;;;;;;29.02;26.15;;;;;;;;;;5061972;28;20117;-61
2023/09/10 00:59:15;;;;;;;25.73;23.02;;;;;;;;;;5070393;28;20013;-61
2023/09/10 01:01:40;;;;;;;29.92;26.73;;;;;;;;;;5068737;28;20487;-61
2023/09/10 01:04:06;;;;;;;28.40;25.50;;;;;;;;;;5070473;28;20503;-61
2023/09/10 01:06:31;;;;;;;24.10;21.75;;;;;;;;;;5066764;28;20063;-69
2023/09/10 01:08:56;;;;;;;29.48;26.48;;;;;;;;;;5054204;28;20065;-61
2023/09/10 01:11:26;;;;;;;25.75;23.35;;;;;;;;;;5058906;28;20031;-61
2023/09/10 01:14:00;;;;;;;17.67;15.85;;;;;;;;;;5070571;28;20020;-61
2023/09/10 01:16:33;;;;;;;20.48;18.60;;;;;;;;;;5068298;28;20059;-61
2023/09/10 01:19:03;;;;;;;22.73;20.58;;;;;;;;;;5066602;28;20016;-61
2023/09/10 01:21:39;;;;;;;19.08;17.23;;;;;;;;;;5052974;28;20174;-61
2023/09/10 01:24:13;;;;;;;22.05;19.95;;;;;;;;;;5050065;28;20020;-61
2023/09/10 01:26:39;;;;;;;22.48;20.33;;;;;;;;;;5048637;28;20041;-61
2023/09/10 01:29:04;;;;;;;28.33;23.33;;;;;;;;;;5050495;28;20430;-61
2023/09/10 01:31:32;;;;;;;28.33;24.23;;;;;;;;;;5048389;28;20118;-61
2023/09/10 01:34:00;;;;;;;26.05;23.48;;;;;;;;;;5050327;28;20419;-61
2023/09/10 01:36:25;;;;;;;26.35;22.67;;;;;;;;;;5048555;28;20392;-61
2023/09/10 01:38:55;;;;;;;27.95;24.55;;;;;;;;;;5049404;28;20377;-61
2023/09/10 01:41:21;;;;;;;17.33;12.70;;;;;;;;;;5049666;28;20147;-61
2023/09/10 01:43:46;;;;;;;31.05;14.07;;;;;;;;;;5049932;28;20032;-61
2023/09/10 01:46:12;;;;;;;13.32;11.98;;;;;;;;;;5048092;28;20044;-62
2023/09/10 01:48:37;;;;;;;17.60;15.98;;;;;;;;;;5049581;28;20044;-62
2023/09/10 01:51:02;;;;;;;24.23;17.38;;;;;;;;;;5055727;28;20037;-62
2023/09/10 01:53:27;;;;;;;24.30;21.87;;;;;;;;;;5051769;28;20420;-61
2023/09/10 01:55:53;;;;;;;23.73;21.40;;;;;;;;;;5034324;28;20810;-61
2023/09/10 01:58:18;;;;;;;20.00;17.90;;;;;;;;;;5063879;28;20110;-61
2023/09/10 02:00:45;;;;;;;26.40;23.73;;;;;;;;;;5067857;28;20585;-61
2023/09/10 02:03:10;;;;;;;24.35;20.50;;;;;;;;;;5070005;28;20379;-60
2023/09/10 02:05:35;;;;;;;224.73;24.33;;;;;;;;;;5068437;28;20034;-61
2023/09/10 02:08:00;;;;;;;71.88;17.33;;;;;;;;;;5069677;28;20021;-61
2023/09/10 02:10:25;;;;;;;33.07;18.27;;;;;;;;;;5068619;28;20027;-59
2023/09/10 02:12:51;;;;;;;16.33;14.88;;;;;;;;;;5069401;28;20443;-60
2023/09/10 02:15:16;;;;;;;41.60;16.27;;;;;;;;;;5067551;28;20548;-61
2023/09/10 02:17:41;;;;;;;22.50;13.98;;;;;;;;;;5069419;28;20096;-60
2023/09/10 02:20:10;;;;;;;116.25;16.58;;;;;;;;;;5070061;28;20344;-62
2023/09/10 02:22:39;;;;;;;59.65;18.35;;;;;;;;;;5067847;28;20036;-61
2023/09/10 02:25:04;;;;;;;27.73;17.17;;;;;;;;;;5069781;28;20052;-62
2023/09/10 02:27:30;;;;;;;55.30;16.33;;;;;;;;;;5067935;28;20126;-61
2023/09/10 02:29:55;;;;;;;75.97;15.90;;;;;;;;;;5069565;28;20028;-61
2023/09/10 02:32:20;;;;;;;20.98;17.33;;;;;;;;;;5068208;28;20090;-61
2023/09/10 02:34:46;;;;;;;45.73;23.50;;;;;;;;;;5069116;28;20713;-60
2023/09/10 02:37:11;;;;;;;30.35;25.00;;;;;;;;;;5067401;28;20116;-60
2023/09/10 02:39:36;;;;;;;23.15;20.73;;;;;;;;;;5068705;28;20047;-60
2023/09/10 02:42:02;;;;;;;19.48;17.77;;;;;;;;;;5063507;28;20051;-60
2023/09/10 02:44:27;;;;;;;20.33;18.13;;;;;;;;;;5067121;28;20055;-60
2023/09/10 02:46:52;;;;;;;25.13;22.52;;;;;;;;;;5068049;28;21012;-60
2023/09/10 02:49:17;;;;;;;27.55;24.77;;;;;;;;;;5068394;28;20425;-60
2023/09/10 02:51:42;;;;;;;26.07;23.37;;;;;;;;;;5067674;28;20037;-59
2023/09/10 02:54:07;;;;;;;28.08;25.08;;;;;;;;;;5069739;28;20418;-60
2023/09/10 02:56:33;;;;;;;26.52;23.75;;;;;;;;;;5068296;28;20025;-60
2023/09/10 02:58:58;;;;;;;21.25;18.90;;;;;;;;;;5072675;28;20024;-70
2023/09/10 03:01:23;;;;;;;24.00;16.67;;;;;;;;;;5069759;28;20029;-64
2023/09/10 03:03:49;;;;;;;20.98;18.92;;;;;;;;;;5072845;28;20092;-60
2023/09/10 03:06:14;;;;;;;26.33;22.92;;;;;;;;;;5071585;28;20487;-60
2023/09/10 03:08:41;;;;;;;29.10;26.17;;;;;;;;;;5072133;28;20012;-60
2023/09/10 03:11:06;;;;;;;27.10;24.25;;;;;;;;;;5071403;28;20524;-60
2023/09/10 03:13:31;;;;;;;29.05;26.02;;;;;;;;;;5059761;28;20017;-60
2023/09/10 03:15:56;;;;;;;34.53;30.83;;;;;;;;;;5050944;28;20051;-60
2023/09/10 03:18:22;;;;;;;42.65;34.83;;;;;;;;;;5052737;28;20447;-60
2023/09/10 03:20:47;;;;;;;38.80;34.90;;;;;;;;;;5051049;28;20036;-60
2023/09/10 03:23:12;;;;;;;34.70;31.02;;;;;;;;;;5052152;28;20074;-60
2023/09/10 03:25:40;;;;;;;34.90;31.25;;;;;;;;;;5051074;28;20086;-60
2023/09/10 03:28:06;;;;;;;35.85;31.80;;;;;;;;;;5052315;28;20020;-58
2023/09/10 03:30:31;;;;;;;28.58;25.80;;;;;;;;;;5053412;28;20190;-61
2023/09/10 03:32:56;;;;;;;28.15;25.42;;;;;;;;;;5072533;28;20352;-68
2023/09/10 03:35:21;;;;;;;28.15;25.60;;;;;;;;;;5070930;28;20020;-62
2023/09/10 03:37:46;;;;;;;25.52;22.77;;;;;;;;;;5071195;28;20566;-61
2023/09/10 03:40:12;;;;;;;21.33;17.43;;;;;;;;;;5050639;28;20527;-59
2023/09/10 03:42:37;;;;;;;26.27;19.95;;;;;;;;;;5071702;28;20035;-62
2023/09/10 03:45:02;;;;;;;27.50;24.83;;;;;;;;;;5071919;28;20024;-61
2023/09/10 03:47:29;;;;;;;26.30;23.73;;;;;;;;;;5070550;28;20440;-61
2023/09/10 03:49:54;;;;;;;29.23;26.27;;;;;;;;;;5072046;28;20017;-61
2023/09/10 03:52:20;;;;;;;28.00;25.07;;;;;;;;;;5070443;28;20039;-61
2023/09/10 03:54:45;;;;;;;23.95;20.10;;;;;;;;;;5071459;28;20542;-61
2023/09/10 03:57:10;;;;;;;16.77;13.93;;;;;;;;;;5070248;28;20139;-61
2023/09/10 03:59:35;;;;;;;21.30;16.20;;;;;;;;;;5071055;28;20016;-61
2023/09/10 04:02:00;;;;;;;20.35;18.45;;;;;;;;;;5070071;28;20040;-61
2023/09/10 04:04:25;;;;;;;26.43;23.40;;;;;;;;;;5071998;28;20016;-61
2023/09/10 04:06:51;;;;;;;27.85;24.90;;;;;;;;;;5069766;28;20519;-62
2023/09/10 04:09:16;;;;;;;27.10;23.43;;;;;;;;;;5071575;28;20017;-61
2023/09/10 04:11:41;;;;;;;22.45;20.27;;;;;;;;;;5070021;28;20162;-61
2023/09/10 04:14:06;;;;;;;23.98;21.45;;;;;;;;;;5035617;28;20017;-62
2023/09/10 04:16:31;;;;;;;24.27;21.85;;;;;;;;;;5029571;28;20041;-60
2023/09/10 04:18:56;;;;;;;23.80;21.35;;;;;;;;;;5031735;28;20056;-60
2023/09/10 04:21:22;;;;;;;26.17;23.40;;;;;;;;;;5055759;28;20040;-60
2023/09/10 04:23:47;;;;;;;21.23;19.33;;;;;;;;;;5070529;28;20056;-60
2023/09/10 04:26:12;;;;;;;14.50;13.13;;;;;;;;;;5069057;28;20493;-60
2023/09/10 04:28:38;;;;;;;33.53;17.38;;;;;;;;;;5070995;28;20016;-60
2023/09/10 04:31:03;;;;;;;22.37;20.13;;;;;;;;;;5069705;28;20119;-60
2023/09/10 04:33:28;;;;;;;20.73;18.73;;;;;;;;;;5070704;28;20479;-60
2023/09/10 04:35:56;;;;;;;25.40;22.93;;;;;;;;;;5069224;28;20040;-61
2023/09/10 04:38:22;;;;;;;27.98;25.30;;;;;;;;;;5062120;28;20170;-66
2023/09/10 04:40:47;;;;;;;25.75;23.05;;;;;;;;;;5049541;28;20053;-60
2023/09/10 04:43:12;;;;;;;26.95;24.25;;;;;;;;;;5066503;28;20025;-59
2023/09/10 04:45:37;;;;;;;27.70;24.93;;;;;;;;;;5049198;28;20496;-59
2023/09/10 04:48:04;;;;;;;25.93;23.33;;;;;;;;;;5060354;28;20033;-63
2023/09/10 04:50:29;;;;;;;30.95;25.42;;;;;;;;;;5068771;28;20020;-61
2023/09/10 04:52:54;;;;;;;29.55;26.38;;;;;;;;;;5069780;28;20039;-62
2023/09/10 04:55:19;;;;;;;26.58;23.00;;;;;;;;;;5068208;28;20060;-60
2023/09/10 04:57:46;;;;;;;21.27;18.47;;;;;;;;;;5067995;28;20061;-60
2023/09/10 05:00:11;;;;;;;26.73;24.00;;;;;;;;;;5068195;28;20032;-62
2023/09/10 05:02:36;;;;;;;37.28;33.30;;;;;;;;;;5068156;28;20032;-60
2023/09/10 05:05:02;;;;;;;31.45;28.20;;;;;;;;;;5069093;28;20031;-60
2023/09/10 05:07:27;;;;;;;43.55;33.67;;;;;;;;;;5066799;28;20043;-60
2023/09/10 05:09:54;;;;;;;43.33;38.67;;;;;;;;;;5069632;28;20146;-59
2023/09/10 05:12:19;;;;;;;41.95;35.92;;;;;;;;;;5067108;28;20119;-64
2023/09/10 05:14:44;;;;;;;36.72;32.63;;;;;;;;;;5068175;28;20103;-60
2023/09/10 05:17:09;;;;;;;24.90;22.17;;;;;;;;;;5068282;28;20033;-60
2023/09/10 05:19:34;;;;;;;45.58;30.42;;;;;;;;;;5068449;28;20048;-60
2023/09/10 05:21:59;;;;;;;36.83;33.07;;;;;;;;;;5062921;28;20055;-59
2023/09/10 05:24:25;;;;;;;32.80;28.33;;;;;;;;;;5049164;28;20451;-60
2023/09/10 05:26:50;;;;;;;36.67;31.55;;;;;;;;;;5061575;28;20080;-60
2023/09/10 05:29:15;;;;;;;40.55;33.33;;;;;;;;;;5067915;28;20021;-60
2023/09/10 05:31:40;;;;;;;46.73;40.30;;;;;;;;;;5068051;28;20068;-60
2023/09/10 05:34:05;;;;;;;51.75;44.47;;;;;;;;;;5069309;28;20020;-60
2023/09/10 05:36:30;;;;;;;50.15;42.75;;;;;;;;;;5066503;28;20072;-60
2023/09/10 05:38:55;;;;;;;57.40;50.58;;;;;;;;;;5069380;28;20041;-60
2023/09/10 05:41:21;;;;;;;61.28;50.50;;;;;;;;;;5067951;28;20032;-60
2023/09/10 05:43:46;;;;;;;62.80;55.22;;;;;;;;;;5067922;28;20036;-60
2023/09/10 05:46:11;;;;;;;61.57;49.53;;;;;;;;;;5067994;28;20090;-60
2023/09/10 05:48:36;;;;;;;65.50;53.83;;;;;;;;;;5069047;28;20021;-60
2023/09/10 05:51:01;;;;;;;70.83;57.00;;;;;;;;;;5066262;28;20478;-60
2023/09/10 05:53:27;;;;;;;73.10;55.97;;;;;;;;;;5069230;28;20563;-60
2023/09/10 05:55:52;;;;;;;65.30;52.88;;;;;;;;;;5067291;28;20082;-60
2023/09/10 05:58:19;;;;;;;76.40;62.23;;;;;;;;;;5068173;28;20099;-60
2023/09/10 06:00:44;;;;;;;101.20;78.53;;;;;;;;;;5066872;28;20385;-61
2023/09/10 06:03:09;;;;;;;87.93;71.32;;;;;;;;;;5061153;28;20031;-61
2023/09/10 06:05:35;;;;;;;84.28;70.25;;;;;;;;;;5066352;28;20169;-61
2023/09/10 06:08:00;;;;;;;65.60;54.33;;;;;;;;;;5069314;28;20109;-61
2023/09/10 06:10:25;;;;;;;85.82;65.90;;;;;;;;;;5067257;28;20021;-61
2023/09/10 06:12:50;;;;;;;90.57;72.82;;;;;;;;;;5068672;28;20540;-61
2023/09/10 06:15:15;;;;;;;100.57;79.93;;;;;;;;;;5064597;28;20032;-59
2023/09/10 06:17:40;;;;;;;100.87;83.30;;;;;;;;;;5068754;28;20076;-57
2023/09/10 06:20:06;;;;;;;87.60;74.40;;;;;;;;;;5068290;28;20024;-57
2023/09/10 06:22:31;;;;;;;96.32;82.82;;;;;;;;;;5065948;28;20438;-57
2023/09/10 06:24:56;;;;;;;94.13;83.03;;;;;;;;;;5068917;28;20151;-57
2023/09/10 06:27:21;;;;;;;90.47;79.67;;;;;;;;;;5066905;28;20043;-57
2023/09/10 06:29:47;;;;;;;96.30;83.33;;;;;;;;;;5066357;28;20462;-56
2023/09/10 06:32:12;;;;;;;104.57;80.40;;;;;;;;;;5071185;28;20032;-56
2023/09/10 06:34:37;;;;;;;89.85;79.30;;;;;;;;;;5071001;28;20046;-57
2023/09/10 06:37:02;;;;;;;100.45;87.60;;;;;;;;;;5068591;28;20048;-57
2023/09/10 06:39:28;;;;;;;95.28;81.47;;;;;;;;;;5071820;28;20526;-57
2023/09/10 06:41:53;;;;;;;87.20;77.65;;;;;;;;;;5070919;28;20177;-56
2023/09/10 06:44:18;;;;;;;86.53;72.15;;;;;;;;;;5073198;28;20012;-56
2023/09/10 06:46:43;;;;;;;79.00;70.30;;;;;;;;;;5070363;28;20144;-57
2023/09/10 06:49:08;;;;;;;78.28;69.95;;;;;;;;;;5071719;28;20044;-63
2023/09/10 06:51:34;;;;;;;88.53;74.10;;;;;;;;;;5071131;28;20317;-57
2023/09/10 06:53:59;;;;;;;82.18;71.95;;;;;;;;;;5072622;28;20020;-57
2023/09/10 06:56:25;;;;;;;80.22;71.93;;;;;;;;;;5070318;28;20047;-57
2023/09/10 06:58:50;;;;;;;73.35;65.03;;;;;;;;;;5072672;28;20052;-57
2023/09/10 07:01:18;;;;;;;73.30;65.57;;;;;;;;;;5071069;28;20024;-57
2023/09/10 07:03:43;;;;;;;;;;;;;;;;;;5072354;28;20028;-58
2023/09/10 07:06:08;;;;;;;68.97;61.15;;;;;;;;;;5070847;28;19913;-58
2023/09/10 07:08:35;;;;;;;67.70;60.60;;;;;;;;;;5070996;28;20105;-58
2023/09/10 07:11:00;;;;;;;59.08;52.70;;;;;;;;;;5069482;28;20039;-59
2023/09/10 07:13:25;;;;;;;65.33;58.73;;;;;;;;;;5072726;28;20021;-65
2023/09/10 07:15:50;;;;;;;55.67;49.72;;;;;;;;;;5050472;28;20474;-58
2023/09/10 07:18:15;;;;;;;55.45;49.40;;;;;;;;;;5052191;28;20025;-58
2023/09/10 07:20:40;;;;;;;55.53;49.80;;;;;;;;;;5048817;28;20033;-60
2023/09/10 07:23:06;;;;;;;49.88;44.88;;;;;;;;;;5051456;28;20016;-63
2023/09/10 07:25:31;;;;;;;50.70;45.43;;;;;;;;;;5050308;28;20102;-57
2023/09/10 07:27:56;;;;;;;46.25;41.47;;;;;;;;;;5051268;28;20021;-57
2023/09/10 07:30:21;;;;;;;44.27;38.27;;;;;;;;;;5050768;28;20067;-57
2023/09/10 07:32:46;;;;;;;42.17;36.57;;;;;;;;;;5053047;28;20018;-57
2023/09/10 07:35:12;;;;;;;39.70;35.65;;;;;;;;;;5050613;28;20017;-58
2023/09/10 07:37:37;;;;;;;40.90;36.28;;;;;;;;;;5070116;28;20035;-58
2023/09/10 07:40:02;;;;;;;38.03;34.00;;;;;;;;;;5057846;28;20045;-58
2023/09/10 07:42:27;;;;;;;36.30;32.60;;;;;;;;;;5067697;28;20487;-58
2023/09/10 07:44:53;;;;;;;32.08;28.80;;;;;;;;;;5069655;28;20028;-58
2023/09/10 07:47:18;;;;;;;32.08;28.85;;;;;;;;;;5047436;28;20463;-58
2023/09/10 07:49:43;;;;;;;30.60;27.30;;;;;;;;;;5062616;28;20024;-58
2023/09/10 07:52:08;;;;;;;38.97;28.77;;;;;;;;;;5070454;28;20043;-58
2023/09/10 07:54:36;;;;;;;33.28;28.35;;;;;;;;;;5071709;28;20024;-59
2023/09/10 07:57:03;;;;;;;31.20;27.92;;;;;;;;;;5069943;28;20195;-58
2023/09/10 07:59:28;;;;;;;32.17;29.10;;;;;;;;;;5071708;28;20146;-58
2023/09/10 08:01:53;;;;;;;32.92;29.33;;;;;;;;;;5068325;28;20123;-58
2023/09/10 08:04:18;;;;;;;30.58;27.48;;;;;;;;;;5071258;28;20024;-58
2023/09/10 08:06:43;;;;;;;30.57;27.00;;;;;;;;;;5070055;28;20033;-58
2023/09/10 08:09:09;;;;;;;34.63;27.83;;;;;;;;;;5071653;28;20020;-58
2023/09/10 08:11:35;;;;;;;33.72;26.88;;;;;;;;;;5069636;28;20037;-59
2023/09/10 08:14:00;;;;;;;29.67;26.50;;;;;;;;;;5071853;28;20571;-59
2023/09/10 08:16:25;;;;;;;28.03;25.33;;;;;;;;;;5069808;28;20040;-58
2023/09/10 08:18:50;;;;;;;25.30;22.83;;;;;;;;;;5069850;28;20529;-60
2023/09/10 08:21:15;;;;;;;26.30;23.60;;;;;;;;;;5070177;28;20491;-59
2023/09/10 08:23:42;;;;;;;25.77;22.92;;;;;;;;;;5071201;28;20917;-59
2023/09/10 08:26:07;;;;;;;24.48;22.08;;;;;;;;;;5069535;28;20439;-59
2023/09/10 08:28:32;;;;;;;27.80;22.73;;;;;;;;;;5065967;28;20025;-66
2023/09/10 08:30:58;;;;;;;25.90;23.20;;;;;;;;;;5054443;28;20036;-59
2023/09/10 08:33:25;;;;;;;27.85;24.13;;;;;;;;;;5070409;28;20054;-59
2023/09/10 08:35:50;;;;;;;27.10;23.33;;;;;;;;;;5069181;28;20119;-59
2023/09/10 08:38:16;;;;;;;25.92;23.00;;;;;;;;;;5070970;28;20053;-58
2023/09/10 08:40:59;;;;;;;24.40;21.90;;;;;;;;;;5067223;28;20036;-59
2023/09/10 08:43:44;;;;;;;28.45;23.20;;;;;;;;;;5070532;28;20025;-59
2023/09/10 08:46:10;;;;;;;26.38;23.63;;;;;;;;;;5065174;28;20032;-59
2023/09/10 08:48:41;;;;;;;24.27;21.83;;;;;;;;;;5062878;28;20025;-59
2023/09/10 08:51:11;;;;;;;23.60;21.38;;;;;;;;;;5053690;28;20094;-59
2023/09/10 08:53:38;;;;;;;24.48;22.02;;;;;;;;;;5068932;28;20020;-59
2023/09/10 08:56:04;;;;;;;23.13;20.80;;;;;;;;;;5061055;28;20044;-58
2023/09/10 08:58:30;;;;;;;21.98;19.67;;;;;;;;;;5050074;28;20029;-58
2023/09/10 09:00:56;;;;;;;20.35;18.35;;;;;;;;;;5054852;28;20115;-59
2023/09/10 09:03:21;;;;;;;25.15;18.70;;;;;;;;;;5070285;28;20470;-59
2023/09/10 09:05:48;;;;;;;18.55;16.65;;;;;;;;;;5063794;28;20522;-59
2023/09/10 09:08:18;;;;;;;20.38;16.73;;;;;;;;;;5070533;28;20103;-59
2023/09/10 09:10:44;;;;;;;20.55;18.35;;;;;;;;;;5064648;28;20033;-59
2023/09/10 09:13:11;;;;;;;19.20;16.02;;;;;;;;;;5050856;28;20096;-59
2023/09/10 09:15:37;;;;;;;16.75;15.00;;;;;;;;;;5051454;28;20030;-62
2023/09/10 09:18:03;;;;;;;17.98;16.27;;;;;;;;;;5069904;28;20495;-59
2023/09/10 09:20:30;;;;;;;24.98;15.18;;;;;;;;;;5068920;28;20025;-59
2023/09/10 09:22:58;;;;;;;17.77;15.27;;;;;;;;;;5070416;28;20675;-59
2023/09/10 09:25:23;;;;;;;;;;;;;;;;;;5069101;28;20504;-59
2023/09/10 09:27:48;;;;;;;31.52;17.05;;;;;;;;;;5070401;28;20438;-59
2023/09/10 09:30:13;;;;;;;14.65;13.20;;;;;;;;;;5069853;28;20066;-56
2023/09/10 09:32:39;;;;;;;21.47;15.13;;;;;;;;;;5059070;28;20333;-59
2023/09/10 09:35:05;;;;;;;19.83;17.48;;;;;;;;;;5069704;28;20471;-60
2023/09/10 09:37:33;;;;;;;18.63;16.67;;;;;;;;;;5068472;28;20033;-59
2023/09/10 09:39:59;;;;;;;16.42;14.93;;;;;;;;;;5068383;28;20051;-59
2023/09/10 09:42:24;;;;;;;17.33;15.48;;;;;;;;;;5068634;28;20037;-59
2023/09/10 09:44:49;;;;;;;18.50;13.40;;;;;;;;;;5067648;28;20388;-59
2023/09/10 09:47:14;;;;;;;13.63;11.53;;;;;;;;;;5054609;28;20056;-59
2023/09/10 09:49:44;;;;;;;17.27;13.80;;;;;;;;;;5068998;28;20021;-59
2023/09/10 09:52:10;;;;;;;13.75;12.35;;;;;;;;;;5068013;28;20041;-59
2023/09/10 09:54:35;;;;;;;14.52;12.52;;;;;;;;;;5069125;28;20031;-59
2023/09/10 09:57:02;;;;;;;15.07;12.02;;;;;;;;;;5068321;28;20438;-59
2023/09/10 09:59:27;;;;;;;15.03;11.13;;;;;;;;;;5053652;28;20078;-59
2023/09/10 10:01:52;;;;;;;13.32;11.73;;;;;;;;;;5061662;28;20036;-59
2023/09/10 10:04:18;;;;;;;16.33;11.00;;;;;;;;;;5070008;28;20024;-59
2023/09/10 10:06:44;;;;;;;18.20;10.05;;;;;;;;;;5069292;28;20029;-59
2023/09/10 10:09:09;;;;;;;15.07;12.02;;;;;;;;;;5072960;28;20578;-59
2023/09/10 10:11:35;;;;;;;12.43;9.60;;;;;;;;;;5071900;28;20037;-59
2023/09/10 10:14:01;;;;;;;14.40;8.95;;;;;;;;;;5061436;28;20020;-59
2023/09/10 10:16:28;;;;;;;9.48;8.57;;;;;;;;;;5061640;28;20110;-59
2023/09/10 10:18:53;;;;;;;13.35;10.45;;;;;;;;;;5069301;28;20024;-59
2023/09/10 10:21:19;;;;;;;12.43;10.27;;;;;;;;;;5052225;28;20043;-59
2023/09/10 10:23:45;;;;;;;18.27;8.82;;;;;;;;;;5059168;28;20481;-59
2023/09/10 10:26:11;;;;;;;12.10;9.07;;;;;;;;;;5060231;28;20051;-59
2023/09/10 10:28:36;;;;;;;14.00;7.55;;;;;;;;;;5067910;28;20031;-59
2023/09/10 10:31:04;;;;;;;17.63;7.75;;;;;;;;;;5064369;28;20029;-59
2023/09/10 10:33:30;;;;;;;9.60;8.15;;;;;;;;;;5048260;28;20036;-73
2023/09/10 10:36:03;;;;;;;11.75;6.95;;;;;;;;;;5044522;28;20039;-59
2023/09/10 10:38:31;;;;;;;7.28;6.65;;;;;;;;;;5052581;28;20076;-59
2023/09/10 10:40:57;;;;;;;7.55;6.93;;;;;;;;;;5050960;28;20040;-59
2023/09/10 10:43:27;;;;;;;13.05;7.05;;;;;;;;;;5052858;28;20033;-59
2023/09/10 10:45:55;;;;;;;16.77;8.35;;;;;;;;;;5056145;28;20044;-59
2023/09/10 10:48:20;;;;;;;;;;;;;;;;;;5062103;28;20036;-60
2023/09/10 10:50:46;;;;;;;14.98;6.72;;;;;;;;;;5063925;28;19963;-59
2023/09/10 10:53:22;;;;;;;13.13;6.57;;;;;;;;;;5071289;28;20024;-59
2023/09/10 10:55:52;;;;;;;13.07;7.47;;;;;;;;;;5055935;28;20037;-59
2023/09/10 10:58:19;;;;;;;11.88;7.35;;;;;;;;;;5072293;28;20016;-59
2023/09/10 11:00:47;;;;;;;23.27;7.20;;;;;;;;;;5070706;28;20146;-60
2023/09/10 11:03:13;;;;;;;15.60;6.53;;;;;;;;;;5072727;28;20025;-59
2023/09/10 11:05:54;;;;;;;17.42;7.00;;;;;;;;;;5058818;28;20033;-59
2023/09/10 11:08:26;;;;;;;10.02;6.82;;;;;;;;;;5066554;28;20031;-59
2023/09/10 11:10:51;;;;;;;10.68;6.35;;;;;;;;;;5065121;28;20389;-60
2023/09/10 11:13:17;;;;;;;32.75;11.23;;;;;;;;;;5051972;28;20082;-60
2023/09/10 11:16:01;;;;;;;10.88;7.45;;;;;;;;;;5053926;28;20043;-60
2023/09/10 11:18:35;;;;;;;13.80;6.18;;;;;;;;;;5065456;28;20033;-60
2023/09/10 11:21:04;;;;;;;10.52;6.35;;;;;;;;;;5058996;28;20137;-60
2023/09/10 11:23:30;;;;;;;16.67;7.03;;;;;;;;;;5071847;28;20024;-60
2023/09/10 11:26:24;;;;;;;28.35;6.22;;;;;;;;;;5064317;28;20032;-61
2023/09/10 11:28:53;;;;;;;12.57;7.28;;;;;;;;;;5046880;28;20029;-59
2023/09/10 11:31:33;;;;;;;16.70;6.70;;;;;;;;;;5059960;28;20483;-59
2023/09/10 11:34:23;;;;;;;13.13;6.53;;;;;;;;;;5068984;28;20033;-59
2023/09/10 11:36:55;;;;;;;23.60;6.78;;;;;;;;;;5048021;28;20450;-60
2023/09/10 11:39:21;;;;;;;17.63;5.60;;;;;;;;;;5051539;28;20132;-61
2023/09/10 11:41:47;;;;;;;11.15;6.22;;;;;;;;;;5048512;28;20187;-60
2023/09/10 11:44:13;;;;;;;13.30;6.47;;;;;;;;;;5045607;28;20025;-60
2023/09/10 11:46:38;;;;;;;17.42;6.97;;;;;;;;;;5060958;28;20180;-60
2023/09/10 11:49:03;;;;;;;17.67;6.73;;;;;;;;;;5053323;28;20036;-60
2023/09/10 11:51:29;;;;;;;27.67;8.30;;;;;;;;;;5054117;28;20488;-60
2023/09/10 11:53:54;;;;;;;30.65;7.05;;;;;;;;;;5051242;28;20013;-60
2023/09/10 11:56:19;;;;;;;17.03;6.17;;;;;;;;;;5048885;28;20132;-60
2023/09/10 11:58:44;;;;;;;15.90;7.13;;;;;;;;;;5051311;28;20017;-60
2023/09/10 12:01:10;;;;;;;18.90;6.07;;;;;;;;;;5058242;28;20040;-60
2023/09/10 12:03:35;;;;;;;11.43;5.67;;;;;;;;;;5049739;28;20096;-59
2023/09/10 12:06:00;;;;;;;25.33;8.23;;;;;;;;;;5047004;28;20525;-60
2023/09/10 12:08:26;;;;;;;23.95;10.13;;;;;;;;;;5069836;28;20032;-60
2023/09/10 12:10:53;;;;;;;21.13;7.00;;;;;;;;;;5069250;28;20521;-69
2023/09/10 12:13:18;;;;;;;17.03;7.40;;;;;;;;;;5066168;28;20012;-59
2023/09/10 12:15:44;;;;;;;20.15;7.13;;;;;;;;;;5067888;28;20124;-59
2023/09/10 12:18:09;;;;;;;23.45;9.10;;;;;;;;;;5071539;28;20082;-59
2023/09/10 12:20:35;;;;;;;21.53;8.80;;;;;;;;;;5065680;28;20115;-60
2023/09/10 12:23:00;;;;;;;17.33;7.88;;;;;;;;;;5071223;28;20420;-60
2023/09/10 12:25:26;;;;;;;19.70;7.28;;;;;;;;;;5069724;28;20108;-59
2023/09/10 12:27:51;;;;;;;22.98;6.15;;;;;;;;;;5070306;28;20360;-60
2023/09/10 12:30:16;;;;;;;19.07;6.60;;;;;;;;;;5069148;28;20078;-59
2023/09/10 12:32:41;;;;;;;29.93;8.07;;;;;;;;;;5069073;28;20884;-59
2023/09/10 12:35:07;;;;;;;21.50;7.07;;;;;;;;;;5070769;28;20477;-60
2023/09/10 12:37:32;;;;;;;20.00;6.25;;;;;;;;;;5068144;28;20496;-60
2023/09/10 12:39:57;;;;;;;21.43;6.83;;;;;;;;;;5070568;28;20086;-59
2023/09/10 12:42:24;;;;;;;22.57;7.50;;;;;;;;;;5065547;28;20163;-60
2023/09/10 12:44:49;;;;;;;30.15;6.93;;;;;;;;;;5070212;28;20024;-60
2023/09/10 12:47:14;;;;;;;20.30;7.20;;;;;;;;;;5068952;28;20085;-59
2023/09/10 12:49:39;;;;;;;21.77;7.67;;;;;;;;;;5069632;28;20375;-60
2023/09/10 12:52:04;;;;;;;32.15;8.65;;;;;;;;;;5068348;28;20458;-60
2023/09/10 12:54:30;;;;;;;20.13;6.47;;;;;;;;;;5070773;28;20052;-59
2023/09/10 12:56:55;;;;;;;17.20;6.82;;;;;;;;;;5068411;28;20132;-60
2023/09/10 12:59:21;;;;;;;29.77;6.83;;;;;;;;;;5067401;28;20426;-60
2023/09/10 13:01:48;;;;;;;30.95;8.65;;;;;;;;;;5056721;28;20043;-60
2023/09/10 13:04:13;;;;;;;24.35;8.68;;;;;;;;;;5069674;28;20095;-60
2023/09/10 13:06:38;;;;;;;11.37;5.17;;;;;;;;;;5066835;28;20215;-64
2023/09/10 13:09:06;;;;;;;21.07;8.77;;;;;;;;;;5054083;28;21318;-64
2023/09/10 13:11:31;;;;;;;25.48;8.65;;;;;;;;;;5053159;28;20472;-60
2023/09/10 13:13:57;;;;;;;29.58;6.68;;;;;;;;;;5069426;28;20142;-60
2023/09/10 13:16:22;;;;;;;24.83;7.43;;;;;;;;;;5064805;28;20135;-60
2023/09/10 13:18:48;;;;;;;11.60;4.70;;;;;;;;;;5070192;28;20073;-59
2023/09/10 13:21:13;;;;;;;20.40;6.03;;;;;;;;;;5043458;28;20040;-60
2023/09/10 13:23:39;;;;;;;26.75;9.13;;;;;;;;;;5049946;28;20247;-60
2023/09/10 13:26:04;;;;;;;24.08;6.85;;;;;;;;;;5054949;28;21771;-60
2023/09/10 13:28:29;;;;;;;24.25;6.38;;;;;;;;;;5069911;28;20020;-60
2023/09/10 13:30:54;;;;;;;20.33;6.53;;;;;;;;;;5068019;28;20040;-60
2023/09/10 13:33:19;;;;;;;29.13;8.18;;;;;;;;;;5066047;28;20470;-59
2023/09/10 13:35:44;;;;;;;23.30;8.85;;;;;;;;;;5058812;28;20037;-59
2023/09/10 13:38:09;;;;;;;21.63;6.65;;;;;;;;;;5055889;28;20045;-59
2023/09/10 13:40:39;;;;;;;20.20;5.90;;;;;;;;;;5067281;28;20454;-59
2023/09/10 13:43:04;;;;;;;20.88;5.85;;;;;;;;;;5068892;28;20070;-60
2023/09/10 13:45:30;;;;;;;22.65;6.65;;;;;;;;;;5063527;28;20148;-59
2023/09/10 13:47:55;;;;;;;26.30;7.70;;;;;;;;;;5060036;28;20074;-59
2023/09/10 13:50:20;;;;;;;23.85;6.68;;;;;;;;;;5058140;28;20063;-66
2023/09/10 13:52:45;;;;;;;21.13;8.43;;;;;;;;;;5069431;28;20087;-59
2023/09/10 13:55:10;;;;;;;29.67;7.55;;;;;;;;;;5066718;28;20399;-59
2023/09/10 13:57:36;;;;;;;20.37;5.47;;;;;;;;;;5058997;28;20029;-61
2023/09/10 14:00:02;;;;;;;20.45;7.15;;;;;;;;;;5068336;28;20161;-59
2023/09/10 14:02:27;;;;;;;21.27;7.55;;;;;;;;;;5066876;28;20522;-59
2023/09/10 14:04:52;;;;;;;19.90;7.32;;;;;;;;;;5069321;28;20060;-59
2023/09/10 14:07:18;;;;;;;22.00;6.83;;;;;;;;;;5067882;28;20418;-60
2023/09/10 14:09:43;;;;;;;17.45;7.00;;;;;;;;;;5068769;28;20025;-60
2023/09/10 14:12:08;;;;;;;26.20;6.88;;;;;;;;;;5054587;28;20125;-60
2023/09/10 14:14:33;;;;;;;38.17;7.50;;;;;;;;;;5048833;28;20032;-60